createdAt,value
2023-05-18T00:00:35.329Z,2.75
2023-05-18T00:01:40.765Z,2.50
2023-05-18T00:02:42.681Z,2.60
2023-05-18T00:03:44.576Z,2.70
2023-05-18T00:04:46.702Z,3.83
2023-05-18T00:05:49.245Z,2.83
2023-05-18T00:06:56.780Z,2.90
2023-05-18T00:07:58.391Z,2.63
2023-05-18T00:09:00.016Z,2.70
2023-05-18T00:10:01.843Z,2.58
2023-05-18T00:11:04.905Z,2.33
2023-05-18T00:12:06.961Z,2.25
2023-05-18T00:13:08.961Z,2.67
2023-05-18T00:14:10.616Z,3.15
2023-05-18T00:15:12.250Z,2.22
2023-05-18T00:16:15.800Z,2.80
2023-05-18T00:17:17.526Z,2.50
2023-05-18T00:18:23.667Z,2.22
2023-05-18T00:19:25.445Z,2.60
2023-05-18T00:20:27.156Z,2.17
2023-05-18T00:21:30.651Z,3.20
2023-05-18T00:22:32.680Z,2.55
2023-05-18T00:23:34.779Z,3.10
2023-05-18T00:24:37.101Z,2.67
2023-05-18T00:25:38.884Z,2.92
2023-05-18T00:26:42.744Z,2.67
2023-05-18T00:27:44.426Z,2.67
2023-05-18T00:28:46.206Z,2.88
2023-05-18T00:29:47.977Z,2.70
2023-05-18T00:30:49.617Z,3.00
2023-05-18T00:31:51.323Z,2.80
2023-05-18T00:32:53.039Z,2.95
2023-05-18T00:33:54.675Z,2.75
2023-05-18T00:34:56.363Z,2.50
2023-05-18T00:35:59.211Z,2.85
2023-05-18T00:37:00.881Z,2.92
2023-05-18T00:38:02.786Z,2.75
2023-05-18T00:39:05.845Z,3.00
2023-05-18T00:40:09.032Z,2.90
2023-05-18T00:41:10.945Z,3.50
2023-05-18T00:42:12.574Z,2.65
2023-05-18T00:43:14.271Z,2.03
2023-05-18T00:44:15.910Z,3.05
2023-05-18T00:45:19.139Z,2.70
2023-05-18T00:46:21.540Z,2.67
2023-05-18T00:47:23.390Z,2.03
2023-05-18T00:48:25.040Z,2.40
2023-05-18T00:49:27.485Z,2.53
2023-05-18T00:50:29.390Z,2.60
2023-05-18T00:51:33.085Z,2.63
2023-05-18T00:52:36.137Z,3.35
2023-05-18T00:53:38.095Z,2.92
2023-05-18T00:54:39.777Z,2.45
2023-05-18T00:55:41.490Z,2.60
2023-05-18T00:56:46.709Z,2.50
2023-05-18T00:57:48.379Z,2.58
2023-05-18T00:58:52.770Z,2.35
2023-05-18T00:59:56.264Z,2.42
2023-05-18T01:00:58.064Z,2.60
2023-05-18T01:02:01.506Z,2.05
2023-05-18T01:03:04.432Z,2.60
2023-05-18T01:04:06.113Z,2.88
2023-05-18T01:05:08.348Z,2.45
2023-05-18T01:06:10.473Z,3.10
2023-05-18T01:07:12.912Z,2.58
2023-05-18T01:08:14.577Z,2.65
2023-05-18T01:09:16.354Z,2.30
2023-05-18T01:10:19.994Z,2.40
2023-05-18T01:11:34.160Z,2.50
2023-05-18T01:12:56.113Z,2.72
2023-05-18T01:14:11.487Z,2.10
2023-05-18T01:15:19.952Z,2.63
2023-05-18T01:16:27.822Z,2.30
2023-05-18T01:17:54.498Z,2.35
2023-05-18T01:19:03.106Z,2.70
2023-05-18T01:20:07.224Z,2.50
2023-05-18T01:21:22.090Z,2.40
2023-05-18T01:22:50.593Z,3.75
2023-05-18T01:24:15.971Z,3.22
2023-05-18T01:25:34.592Z,2.53
2023-05-18T01:26:41.277Z,1.90
2023-05-18T01:27:46.420Z,2.53
2023-05-18T01:28:49.758Z,3.00
2023-05-18T01:29:55.889Z,2.40
2023-05-18T01:30:58.418Z,2.60
2023-05-18T01:32:00.493Z,2.70
2023-05-18T01:33:10.700Z,3.05
2023-05-18T01:34:12.417Z,3.17
2023-05-18T01:35:14.185Z,3.47
2023-05-18T01:36:15.858Z,2.80
2023-05-18T01:37:17.518Z,2.60
2023-05-18T01:38:27.584Z,2.78
2023-05-18T01:39:29.297Z,3.08
2023-05-18T01:40:36.913Z,2.95
2023-05-18T01:41:46.389Z,2.80
2023-05-18T01:42:56.051Z,3.15
2023-05-18T01:44:30.776Z,2.83
2023-05-18T01:45:33.194Z,2.50
2023-05-18T01:46:40.461Z,3.47
2023-05-18T01:47:46.171Z,3.33
2023-05-18T01:48:56.765Z,3.10
2023-05-18T01:50:06.311Z,4.20
2023-05-18T01:51:11.131Z,2.72
2023-05-18T01:52:27.724Z,2.95
2023-05-18T01:53:54.739Z,2.63
2023-05-18T01:55:01.416Z,3.15
2023-05-18T01:56:08.607Z,3.72
2023-05-18T01:57:11.231Z,3.05
2023-05-18T01:58:13.760Z,2.50
2023-05-18T01:59:16.259Z,2.83
2023-05-18T02:00:18.916Z,2.95
2023-05-18T02:01:22.783Z,2.97
2023-05-18T02:02:24.872Z,3.60
2023-05-18T02:03:26.806Z,2.60
2023-05-18T02:04:28.784Z,2.97
2023-05-18T02:05:30.607Z,2.70
2023-05-18T02:06:33.440Z,3.13
2023-05-18T02:07:35.062Z,3.30
2023-05-18T02:08:37.725Z,3.10
2023-05-18T02:09:39.368Z,2.47
2023-05-18T02:10:40.983Z,3.42
2023-05-18T02:11:42.654Z,2.80
2023-05-18T02:12:44.348Z,2.97
2023-05-18T02:13:46.127Z,2.97
2023-05-18T02:14:47.734Z,3.95
2023-05-18T02:15:49.488Z,2.78
2023-05-18T02:16:53.118Z,2.80
2023-05-18T02:17:58.128Z,2.70
2023-05-18T02:19:00.292Z,3.10
2023-05-18T02:20:01.991Z,3.25
2023-05-18T02:21:04.226Z,3.13
2023-05-18T02:22:07.115Z,2.85
2023-05-18T02:23:08.840Z,3.20
2023-05-18T02:24:11.745Z,3.50
2023-05-18T02:25:13.422Z,2.60
2023-05-18T02:26:15.046Z,3.33
2023-05-18T02:27:16.637Z,2.85
2023-05-18T02:28:18.397Z,3.28
2023-05-18T02:29:20.068Z,2.88
2023-05-18T02:30:21.808Z,3.20
2023-05-18T02:31:23.482Z,2.72
2023-05-18T02:32:25.149Z,3.50
2023-05-18T02:33:26.919Z,3.65
2023-05-18T02:34:32.990Z,3.50
2023-05-18T02:35:37.646Z,3.33
2023-05-18T02:36:42.686Z,3.03
2023-05-18T02:37:44.468Z,3.47
2023-05-18T02:38:46.273Z,3.90
2023-05-18T02:39:47.945Z,2.83
2023-05-18T02:40:49.553Z,3.67
2023-05-18T02:41:51.310Z,2.95
2023-05-18T02:42:53.016Z,3.58
2023-05-18T02:43:54.624Z,3.08
2023-05-18T02:44:56.379Z,3.63
2023-05-18T02:45:58.357Z,3.50
2023-05-18T02:46:59.998Z,3.55
2023-05-18T02:48:01.679Z,3.40
2023-05-18T02:49:03.405Z,3.15
2023-05-18T02:50:05.406Z,2.75
2023-05-18T02:51:07.053Z,3.13
2023-05-18T02:52:08.663Z,3.25
2023-05-18T02:53:10.337Z,3.40
2023-05-18T02:54:12.020Z,3.65
2023-05-18T02:55:13.723Z,3.00
2023-05-18T02:56:17.702Z,2.92
2023-05-18T02:57:19.323Z,3.20
2023-05-18T02:58:22.895Z,3.30
2023-05-18T02:59:24.741Z,3.70
2023-05-18T03:00:26.692Z,3.67
2023-05-18T03:01:28.401Z,3.40
2023-05-18T03:02:30.119Z,3.30
2023-05-18T03:03:31.885Z,2.88
2023-05-18T03:04:33.637Z,3.38
2023-05-18T03:05:35.508Z,3.38
2023-05-18T03:06:38.373Z,3.45
2023-05-18T03:07:40.021Z,3.20
2023-05-18T03:08:42.466Z,3.25
2023-05-18T03:09:44.085Z,3.03
2023-05-18T03:10:45.881Z,3.20
2023-05-18T03:11:47.639Z,3.53
2023-05-18T03:12:49.527Z,3.53
2023-05-18T03:13:51.193Z,3.60
2023-05-18T03:14:52.795Z,3.40
2023-05-18T03:15:56.578Z,3.60
2023-05-18T03:16:58.289Z,3.20
2023-05-18T03:18:00.035Z,3.10
2023-05-18T03:19:02.780Z,3.33
2023-05-18T03:20:05.145Z,3.40
2023-05-18T03:21:08.075Z,2.95
2023-05-18T03:22:09.919Z,2.72
2023-05-18T03:23:11.854Z,3.72
2023-05-18T03:24:14.570Z,3.83
2023-05-18T03:25:16.476Z,3.58
2023-05-18T03:26:18.529Z,3.60
2023-05-18T03:27:25.289Z,3.60
2023-05-18T03:28:26.951Z,3.35
2023-05-18T03:29:30.665Z,3.88
2023-05-18T03:30:36.234Z,3.35
2023-05-18T03:31:37.968Z,2.85
2023-05-18T03:32:41.416Z,3.70
2023-05-18T03:33:43.065Z,3.17
2023-05-18T03:34:47.589Z,3.15
2023-05-18T03:35:49.371Z,3.45
2023-05-18T03:36:52.434Z,3.63
2023-05-18T03:37:54.220Z,4.28
2023-05-18T03:38:55.878Z,3.40
2023-05-18T03:40:17.270Z,3.25
2023-05-18T03:41:18.872Z,3.50
2023-05-18T03:42:20.719Z,3.20
2023-05-18T03:43:25.710Z,2.83
2023-05-18T03:44:27.493Z,3.13
2023-05-18T03:45:29.340Z,3.80
2023-05-18T03:46:31.355Z,2.88
2023-05-18T03:47:33.710Z,3.40
2023-05-18T03:48:35.390Z,3.47
2023-05-18T03:49:37.061Z,2.95
2023-05-18T03:50:39.506Z,2.97
2023-05-18T03:51:41.119Z,3.95
2023-05-18T03:52:44.565Z,3.40
2023-05-18T03:53:47.004Z,3.53
2023-05-18T03:54:49.724Z,3.35
2023-05-18T03:55:51.659Z,3.50
2023-05-18T03:56:53.276Z,3.38
2023-05-18T03:57:54.946Z,3.17
2023-05-18T03:58:58.489Z,3.80
2023-05-18T04:00:00.249Z,3.10
2023-05-18T04:01:02.324Z,3.08
2023-05-18T04:02:04.064Z,2.53
2023-05-18T04:03:06.586Z,3.42
2023-05-18T04:04:08.893Z,3.65
2023-05-18T04:05:10.584Z,3.42
2023-05-18T04:06:12.187Z,3.00
2023-05-18T04:07:18.087Z,3.10
2023-05-18T04:08:25.593Z,3.42
2023-05-18T04:09:28.031Z,3.30
2023-05-18T04:10:29.649Z,2.75
2023-05-18T04:11:31.542Z,3.13
2023-05-18T04:12:33.166Z,3.25
2023-05-18T04:13:37.967Z,3.25
2023-05-18T04:14:42.194Z,3.03
2023-05-18T04:15:43.834Z,3.50
2023-05-18T04:16:46.120Z,3.70
2023-05-18T04:17:51.321Z,2.83
2023-05-18T04:18:54.014Z,3.33
2023-05-18T04:19:55.912Z,2.90
2023-05-18T04:20:57.721Z,3.80
2023-05-18T04:21:59.677Z,3.75
2023-05-18T04:23:01.368Z,3.80
2023-05-18T04:24:07.188Z,3.30
2023-05-18T04:25:12.986Z,4.28
2023-05-18T04:26:20.116Z,2.95
2023-05-18T04:27:22.647Z,3.65
2023-05-18T04:28:24.318Z,3.00
2023-05-18T04:29:26.530Z,3.67
2023-05-18T04:30:29.904Z,3.17
2023-05-18T04:31:31.606Z,2.75
2023-05-18T04:32:36.301Z,3.15
2023-05-18T04:33:38.441Z,3.20
2023-05-18T04:34:40.789Z,3.67
2023-05-18T04:35:42.405Z,3.72
2023-05-18T04:36:44.561Z,2.90
2023-05-18T04:37:46.212Z,3.40
2023-05-18T04:38:50.727Z,3.72
2023-05-18T04:39:54.005Z,3.35
2023-05-18T04:40:56.991Z,3.40
2023-05-18T04:41:58.673Z,3.25
2023-05-18T04:43:00.781Z,3.08
2023-05-18T04:44:03.448Z,3.13
2023-05-18T04:45:05.996Z,3.25
2023-05-18T04:46:07.768Z,4.55
2023-05-18T04:47:09.504Z,3.00
2023-05-18T04:48:11.289Z,3.53
2023-05-18T04:49:14.142Z,3.67
2023-05-18T04:50:16.874Z,3.63
2023-05-18T04:51:21.378Z,3.40
2023-05-18T04:52:23.055Z,3.85
2023-05-18T04:53:24.684Z,3.22
2023-05-18T04:54:30.935Z,3.88
2023-05-18T04:55:33.552Z,3.70
2023-05-18T04:56:35.666Z,3.00
2023-05-18T04:57:37.564Z,3.30
2023-05-18T04:58:39.283Z,4.03
2023-05-18T04:59:42.480Z,3.00
2023-05-18T05:00:44.765Z,3.35
2023-05-18T05:01:46.535Z,3.72
2023-05-18T05:02:48.433Z,3.30
2023-05-18T05:03:50.138Z,3.35
2023-05-18T05:04:52.116Z,3.05
2023-05-18T05:05:53.752Z,3.80
2023-05-18T05:06:55.650Z,3.25
2023-05-18T05:07:57.529Z,3.80
2023-05-18T05:08:59.277Z,3.42
2023-05-18T05:10:00.936Z,3.05
2023-05-18T05:11:02.628Z,3.75
2023-05-18T05:12:04.556Z,3.95
2023-05-18T05:13:06.385Z,3.85
2023-05-18T05:14:08.130Z,5.93
2023-05-18T05:15:10.004Z,3.53
2023-05-18T05:16:11.932Z,4.15
2023-05-18T05:17:13.600Z,3.47
2023-05-18T05:18:15.351Z,3.80
2023-05-18T05:19:17.103Z,3.70
2023-05-18T05:20:19.135Z,3.08
2023-05-18T05:21:20.852Z,4.28
2023-05-18T05:22:22.534Z,4.18
2023-05-18T05:23:24.175Z,3.60
2023-05-18T05:24:25.793Z,4.03
2023-05-18T05:25:27.495Z,3.50
2023-05-18T05:26:29.170Z,3.30
2023-05-18T05:27:31.096Z,3.75
2023-05-18T05:28:32.717Z,4.07
2023-05-18T05:29:34.542Z,3.90
2023-05-18T05:30:36.252Z,3.47
2023-05-18T05:31:38.042Z,3.58
2023-05-18T05:32:39.738Z,4.65
2023-05-18T05:33:41.782Z,3.20
2023-05-18T05:34:46.748Z,3.70
2023-05-18T05:35:48.445Z,4.50
2023-05-18T05:36:50.080Z,3.70
2023-05-18T05:37:51.702Z,3.92
2023-05-18T05:38:53.395Z,3.50
2023-05-18T05:39:56.463Z,3.30
2023-05-18T05:40:58.403Z,4.45
2023-05-18T05:42:00.159Z,3.17
2023-05-18T05:43:01.969Z,3.78
2023-05-18T05:44:03.724Z,3.63
2023-05-18T05:45:06.089Z,4.18
2023-05-18T05:46:07.755Z,3.20
2023-05-18T05:47:09.943Z,3.75
2023-05-18T05:48:13.749Z,3.13
2023-05-18T05:49:15.887Z,3.90
2023-05-18T05:50:17.620Z,3.78
2023-05-18T05:51:19.228Z,3.58
2023-05-18T05:52:20.961Z,4.15
2023-05-18T05:53:23.465Z,3.65
2023-05-18T05:54:25.177Z,3.50
2023-05-18T05:55:27.075Z,3.25
2023-05-18T05:56:28.706Z,3.40
2023-05-18T05:57:30.689Z,3.28
2023-05-18T05:58:32.330Z,3.55
2023-05-18T05:59:34.597Z,3.55
2023-05-18T06:00:36.728Z,3.08
2023-05-18T06:01:38.804Z,3.25
2023-05-18T06:02:41.001Z,3.00
2023-05-18T06:03:45.110Z,3.00
2023-05-18T06:04:46.846Z,3.33
2023-05-18T06:05:48.504Z,3.20
2023-05-18T06:06:50.510Z,3.15
2023-05-18T06:07:52.701Z,3.35
2023-05-18T06:08:54.325Z,3.30
2023-05-18T06:09:55.959Z,3.30
2023-05-18T06:10:57.613Z,3.55
2023-05-18T06:11:59.302Z,3.00
2023-05-18T06:13:01.154Z,3.30
2023-05-18T06:14:03.035Z,3.80
2023-05-18T06:15:04.936Z,3.25
2023-05-18T06:16:06.595Z,3.53
2023-05-18T06:17:08.277Z,3.30
2023-05-18T06:18:11.518Z,4.50
2023-05-18T06:19:15.108Z,3.35
2023-05-18T06:20:17.201Z,2.90
2023-05-18T06:21:18.833Z,3.20
2023-05-18T06:22:20.769Z,3.20
2023-05-18T06:23:23.624Z,2.65
2023-05-18T06:24:25.344Z,3.15
2023-05-18T06:25:27.313Z,3.38
2023-05-18T06:26:29.075Z,3.15
2023-05-18T06:27:30.872Z,3.08
2023-05-18T06:28:32.722Z,3.05
2023-05-18T06:29:34.375Z,2.90
2023-05-18T06:30:36.020Z,3.97
2023-05-18T06:31:37.742Z,2.58
2023-05-18T06:32:39.538Z,2.97
2023-05-18T06:33:41.475Z,3.22
2023-05-18T06:34:45.723Z,3.05
2023-05-18T06:35:48.044Z,3.40
2023-05-18T06:36:49.711Z,2.70
2023-05-18T06:37:51.580Z,3.15
2023-05-18T06:38:53.251Z,2.38
2023-05-18T06:39:54.895Z,2.78
2023-05-18T06:40:56.503Z,2.95
2023-05-18T06:41:58.115Z,3.15
2023-05-18T06:42:59.754Z,3.08
2023-05-18T06:44:02.129Z,3.10
2023-05-18T06:45:04.386Z,3.30
2023-05-18T06:46:07.818Z,2.95
2023-05-18T06:47:09.553Z,2.40
2023-05-18T06:48:11.311Z,3.25
2023-05-18T06:49:13.163Z,2.75
2023-05-18T06:50:14.784Z,2.85
2023-05-18T06:51:16.434Z,2.70
2023-05-18T06:52:18.064Z,3.20
2023-05-18T06:53:19.798Z,2.42
2023-05-18T06:54:22.065Z,3.00
2023-05-18T06:55:23.686Z,2.47
2023-05-18T06:56:25.743Z,2.78
2023-05-18T06:57:27.599Z,3.30
2023-05-18T06:58:29.235Z,2.97
2023-05-18T06:59:30.843Z,4.30
2023-05-18T07:00:32.471Z,3.00
2023-05-18T07:01:34.126Z,3.00
2023-05-18T07:02:35.998Z,3.17
2023-05-18T07:03:37.842Z,2.85
2023-05-18T07:04:39.508Z,2.65
2023-05-18T07:05:41.241Z,2.28
2023-05-18T07:06:43.072Z,2.80
2023-05-18T07:07:44.804Z,2.83
2023-05-18T07:08:47.238Z,2.40
2023-05-18T07:09:49.912Z,3.40
2023-05-18T07:10:52.049Z,2.45
2023-05-18T07:11:53.714Z,3.53
2023-05-18T07:12:55.968Z,2.40
2023-05-18T07:13:57.581Z,2.55
2023-05-18T07:14:59.281Z,2.97
2023-05-18T07:16:01.131Z,2.47
2023-05-18T07:17:04.000Z,3.05
2023-05-18T07:18:06.100Z,2.83
2023-05-18T07:19:07.813Z,3.28
2023-05-18T07:20:10.246Z,2.65
2023-05-18T07:21:12.273Z,2.70
2023-05-18T07:22:14.079Z,2.70
2023-05-18T07:23:15.840Z,2.40
2023-05-18T07:24:17.532Z,2.60
2023-05-18T07:25:19.175Z,2.88
2023-05-18T07:26:22.420Z,2.60
2023-05-18T07:27:24.249Z,2.40
2023-05-18T07:28:26.180Z,2.55
2023-05-18T07:29:28.779Z,2.40
2023-05-18T07:30:30.596Z,2.85
2023-05-18T07:31:33.407Z,2.60
2023-05-18T07:32:35.218Z,2.50
2023-05-18T07:33:38.053Z,2.90
2023-05-18T07:34:43.599Z,2.47
2023-05-18T07:35:45.299Z,2.08
2023-05-18T07:36:46.911Z,3.38
2023-05-18T07:37:49.421Z,3.20
2023-05-18T07:38:54.959Z,2.83
2023-05-18T07:39:56.741Z,2.95
2023-05-18T07:41:00.111Z,2.83
2023-05-18T07:42:02.064Z,2.80
2023-05-18T07:43:03.741Z,3.00
2023-05-18T07:44:05.624Z,3.15
2023-05-18T07:45:08.004Z,2.38
2023-05-18T07:46:09.656Z,2.55
2023-05-18T07:47:11.643Z,2.83
2023-05-18T07:48:13.593Z,3.05
2023-05-18T07:49:15.306Z,3.15
2023-05-18T07:50:17.258Z,2.45
2023-05-18T07:51:18.948Z,2.55
2023-05-18T07:52:20.601Z,3.00
2023-05-18T07:53:22.212Z,2.70
2023-05-18T07:54:23.875Z,2.00
2023-05-18T07:55:25.537Z,3.40
2023-05-18T07:56:27.195Z,2.45
2023-05-18T07:57:30.561Z,1.88
2023-05-18T07:58:32.263Z,2.78
2023-05-18T07:59:33.877Z,2.58
2023-05-18T08:00:35.635Z,2.58
2023-05-18T08:01:38.387Z,2.80
2023-05-18T08:02:40.419Z,2.42
2023-05-18T08:03:42.453Z,2.70
2023-05-18T08:04:44.185Z,2.30
2023-05-18T08:05:45.863Z,2.95
2023-05-18T08:06:47.509Z,2.47
2023-05-18T08:07:49.554Z,2.53
2023-05-18T08:08:51.862Z,2.67
2023-05-18T08:09:53.487Z,2.45
2023-05-18T08:10:55.093Z,2.50
2023-05-18T08:11:57.879Z,2.38
2023-05-18T08:12:59.489Z,3.40
2023-05-18T08:14:01.176Z,3.22
2023-05-18T08:15:02.937Z,2.38
2023-05-18T08:16:11.699Z,2.97
2023-05-18T08:17:14.386Z,2.40
2023-05-18T08:18:16.180Z,2.72
2023-05-18T08:19:18.163Z,3.05
2023-05-18T08:20:19.807Z,2.47
2023-05-18T08:21:21.483Z,2.65
2023-05-18T08:22:23.197Z,2.58
2023-05-18T08:23:25.257Z,2.65
2023-05-18T08:24:26.977Z,3.00
2023-05-18T08:25:28.756Z,2.58
2023-05-18T08:26:30.684Z,2.83
2023-05-18T08:27:32.439Z,2.53
2023-05-18T08:28:34.353Z,3.08
2023-05-18T08:29:35.976Z,2.58
2023-05-18T08:30:37.689Z,2.00
2023-05-18T08:31:42.406Z,2.22
2023-05-18T08:32:44.264Z,2.20
2023-05-18T08:33:45.931Z,2.47
2023-05-18T08:34:48.001Z,2.90
2023-05-18T08:35:50.216Z,2.75
2023-05-18T08:36:52.503Z,2.50
2023-05-18T08:37:55.143Z,2.25
2023-05-18T08:38:56.765Z,2.38
2023-05-18T08:39:59.740Z,2.15
2023-05-18T08:41:20.998Z,1.85
2023-05-18T08:42:37.855Z,2.20
2023-05-18T08:43:53.592Z,2.20
2023-05-18T08:45:07.601Z,2.45
2023-05-18T08:46:22.281Z,2.38
2023-05-18T08:47:26.593Z,1.88
2023-05-18T08:48:31.361Z,2.20
2023-05-18T08:49:33.679Z,2.83
2023-05-18T08:50:37.741Z,2.40
2023-05-18T08:51:42.367Z,2.55
2023-05-18T08:52:48.386Z,2.65
2023-05-18T08:53:56.813Z,2.35
2023-05-18T08:55:00.936Z,2.38
2023-05-18T08:56:03.219Z,2.60
2023-05-18T08:57:11.621Z,2.10
2023-05-18T08:58:17.387Z,2.17
2023-05-18T08:59:23.879Z,2.13
2023-05-18T09:00:26.121Z,2.53
2023-05-18T09:01:31.163Z,1.88
2023-05-18T09:02:34.184Z,2.40
2023-05-18T09:03:37.865Z,2.40
2023-05-18T09:04:42.474Z,2.70
2023-05-18T09:05:45.870Z,1.95
2023-05-18T09:06:53.804Z,2.42
2023-05-18T09:07:56.138Z,1.70
2023-05-18T09:08:58.399Z,1.50
2023-05-18T09:10:02.455Z,1.85
2023-05-18T09:11:05.659Z,2.17
2023-05-18T09:12:08.389Z,1.30
2023-05-18T09:13:11.286Z,1.33
2023-05-18T09:14:13.186Z,1.80
2023-05-18T09:15:16.204Z,2.00
2023-05-18T09:16:19.205Z,1.73
2023-05-18T09:17:22.835Z,1.67
2023-05-18T09:18:26.811Z,1.58
2023-05-18T09:19:29.992Z,1.50
2023-05-18T09:20:32.126Z,2.10
2023-05-18T09:21:33.833Z,1.75
2023-05-18T09:22:36.046Z,2.17
2023-05-18T09:23:43.347Z,1.77
2023-05-18T09:24:45.465Z,2.08
2023-05-18T09:25:49.881Z,1.70
2023-05-18T09:26:51.734Z,1.75
2023-05-18T09:27:53.426Z,1.88
2023-05-18T09:28:55.119Z,2.20
2023-05-18T09:29:57.998Z,1.65
2023-05-18T09:30:59.667Z,1.98
2023-05-18T09:32:08.416Z,2.20
2023-05-18T09:33:34.163Z,2.00
2023-05-18T09:34:40.850Z,1.95
2023-05-18T09:35:42.716Z,1.90
2023-05-18T09:36:49.428Z,2.08
2023-05-18T09:37:53.093Z,1.90
2023-05-18T09:38:54.724Z,1.60
2023-05-18T09:40:01.199Z,1.45
2023-05-18T09:41:02.882Z,1.98
2023-05-18T09:42:04.835Z,1.70
2023-05-18T09:43:09.338Z,1.90
2023-05-18T09:44:12.514Z,1.40
2023-05-18T09:45:24.087Z,2.28
2023-05-18T09:46:31.461Z,1.60
2023-05-18T09:47:34.497Z,1.70
2023-05-18T09:48:37.515Z,1.73
2023-05-18T09:49:40.700Z,1.88
2023-05-18T09:50:46.009Z,2.00
2023-05-18T09:51:47.798Z,1.77
2023-05-18T09:52:50.095Z,1.98
2023-05-18T09:53:56.807Z,1.73
2023-05-18T09:55:00.799Z,1.85
2023-05-18T09:56:06.366Z,1.50
2023-05-18T09:57:11.169Z,1.55
2023-05-18T09:58:13.332Z,1.77
2023-05-18T09:59:16.082Z,2.33
2023-05-18T10:00:19.868Z,1.55
2023-05-18T10:01:21.791Z,1.42
2023-05-18T10:02:25.773Z,2.25
2023-05-18T10:03:37.533Z,1.55
2023-05-18T10:04:43.427Z,1.33
2023-05-18T10:05:45.934Z,1.40
2023-05-18T10:06:50.566Z,1.58
2023-05-18T10:07:52.265Z,1.48
2023-05-18T10:08:56.691Z,1.52
2023-05-18T10:10:03.607Z,2.47
2023-05-18T10:11:06.294Z,1.45
2023-05-18T10:12:16.636Z,1.53
2023-05-18T10:13:20.213Z,1.60
2023-05-18T10:14:29.796Z,2.08
2023-05-18T10:15:33.537Z,1.83
2023-05-18T10:16:35.561Z,2.55
2023-05-18T10:17:42.213Z,2.08
2023-05-18T10:18:44.705Z,2.37
2023-05-18T10:19:47.353Z,1.90
2023-05-18T10:20:51.103Z,1.67
2023-05-18T10:21:53.642Z,1.57
2023-05-18T10:22:58.188Z,2.27
2023-05-18T10:24:03.452Z,1.70
2023-05-18T10:25:06.187Z,1.77
2023-05-18T10:26:09.889Z,1.60
2023-05-18T10:27:17.306Z,2.17
2023-05-18T10:28:27.365Z,1.50
2023-05-18T10:29:29.661Z,1.80
2023-05-18T10:30:32.668Z,1.83
2023-05-18T10:31:37.334Z,1.63
2023-05-18T10:32:39.435Z,1.67
2023-05-18T10:33:42.923Z,1.67
2023-05-18T10:34:45.716Z,1.60
2023-05-18T10:35:49.358Z,1.27
2023-05-18T10:36:51.244Z,1.80
2023-05-18T10:37:55.022Z,1.70
2023-05-18T10:38:59.801Z,1.80
2023-05-18T10:40:04.019Z,2.00
2023-05-18T10:41:06.244Z,1.70
2023-05-18T10:42:09.491Z,1.63
2023-05-18T10:43:12.742Z,1.40
2023-05-18T10:44:15.815Z,2.00
2023-05-18T10:45:17.594Z,1.80
2023-05-18T10:46:21.426Z,2.00
2023-05-18T10:47:28.107Z,1.90
2023-05-18T10:48:30.254Z,2.23
2023-05-18T10:49:33.680Z,1.60
2023-05-18T10:50:38.416Z,2.27
2023-05-18T10:51:46.201Z,1.60
2023-05-18T10:52:48.828Z,1.80
2023-05-18T10:53:50.758Z,1.73
2023-05-18T10:54:53.528Z,1.50
2023-05-18T10:55:55.498Z,1.70
2023-05-18T10:56:57.212Z,1.60
2023-05-18T10:58:05.403Z,1.70
2023-05-18T10:59:07.970Z,1.57
2023-05-18T11:00:10.652Z,2.03
2023-05-18T11:01:13.595Z,1.33
2023-05-18T11:02:17.715Z,1.80
2023-05-18T11:03:20.178Z,1.93
2023-05-18T11:04:29.957Z,2.50
2023-05-18T11:05:31.774Z,2.30
2023-05-18T11:06:35.249Z,1.70
2023-05-18T11:07:37.710Z,1.90
2023-05-18T11:08:50.694Z,1.80
2023-05-18T11:09:52.520Z,1.90
2023-05-18T11:11:04.904Z,1.73
2023-05-18T11:12:12.100Z,2.10
2023-05-18T11:13:14.988Z,1.70
2023-05-18T11:14:31.671Z,2.03
2023-05-18T11:15:54.439Z,1.90
2023-05-18T11:17:16.763Z,1.90
2023-05-18T11:18:18.451Z,1.47
2023-05-18T11:19:25.344Z,1.63
2023-05-18T11:20:27.140Z,2.17
2023-05-18T11:21:51.585Z,1.57
2023-05-18T11:22:59.082Z,1.40
2023-05-18T11:24:19.116Z,2.20
2023-05-18T11:25:33.002Z,2.30
2023-05-18T11:26:40.700Z,1.90
2023-05-18T11:27:42.391Z,2.63
2023-05-18T11:28:44.402Z,2.43
2023-05-18T11:29:47.464Z,2.10
2023-05-18T11:30:50.562Z,2.07
2023-05-18T11:31:54.403Z,1.80
2023-05-18T11:33:22.450Z,2.00
2023-05-18T11:34:39.470Z,1.63
2023-05-18T11:36:09.065Z,1.90
2023-05-18T11:37:38.158Z,2.07
2023-05-18T11:38:55.881Z,2.30
2023-05-18T11:40:00.646Z,2.30
2023-05-18T11:41:03.714Z,1.93
2023-05-18T11:42:10.973Z,1.67
2023-05-18T11:43:25.224Z,2.50
2023-05-18T11:44:28.976Z,2.60
2023-05-18T11:45:33.968Z,2.30
2023-05-18T11:46:36.865Z,2.00
2023-05-18T11:47:42.303Z,1.80
2023-05-18T11:48:44.542Z,1.90
2023-05-18T11:49:47.956Z,2.33
2023-05-18T11:50:50.074Z,1.87
2023-05-18T11:51:58.452Z,2.30
2023-05-18T11:53:01.207Z,2.03
2023-05-18T11:54:08.933Z,2.00
2023-05-18T11:55:14.353Z,1.97
2023-05-18T11:56:16.114Z,2.07
2023-05-18T11:57:19.145Z,2.20
2023-05-18T11:58:23.951Z,2.13
2023-05-18T11:59:33.835Z,2.90
2023-05-18T12:00:37.430Z,1.90
2023-05-18T12:01:41.483Z,2.03
2023-05-18T12:02:45.660Z,2.33
2023-05-18T12:03:48.955Z,1.87
2023-05-18T12:04:53.821Z,2.30
2023-05-18T12:06:01.279Z,2.53
2023-05-18T12:07:07.899Z,1.63
2023-05-18T12:08:09.680Z,1.90
2023-05-18T12:09:11.687Z,2.00
2023-05-18T12:10:14.983Z,2.00
2023-05-18T12:11:16.996Z,2.07
2023-05-18T12:12:23.974Z,2.37
2023-05-18T12:13:27.618Z,1.90
2023-05-18T12:14:30.586Z,1.83
2023-05-18T12:15:33.375Z,2.20
2023-05-18T12:16:36.750Z,1.80
2023-05-18T12:17:42.976Z,1.80
2023-05-18T12:18:51.619Z,1.90
2023-05-18T12:19:53.424Z,2.20
2023-05-18T12:20:55.151Z,1.80
2023-05-18T12:21:58.874Z,1.70
2023-05-18T12:23:01.110Z,2.00
2023-05-18T12:24:03.705Z,2.07
2023-05-18T12:25:06.616Z,1.80
2023-05-18T12:26:08.346Z,1.93
2023-05-18T12:27:13.221Z,1.80
2023-05-18T12:28:17.090Z,2.00
2023-05-18T12:29:21.798Z,1.70
2023-05-18T12:30:25.664Z,2.70
2023-05-18T12:31:27.606Z,2.10
2023-05-18T12:32:30.634Z,1.63
2023-05-18T12:33:33.780Z,2.13
2023-05-18T12:34:36.553Z,2.00
2023-05-18T12:35:38.230Z,2.80
2023-05-18T12:36:52.583Z,2.10
2023-05-18T12:37:55.961Z,2.10
2023-05-18T12:38:57.668Z,2.27
2023-05-18T12:40:00.686Z,1.90
2023-05-18T12:41:02.373Z,2.50
2023-05-18T12:42:15.063Z,2.40
2023-05-18T12:43:16.827Z,2.40
2023-05-18T12:44:18.741Z,2.33
2023-05-18T12:45:23.253Z,2.27
2023-05-18T12:46:25.148Z,1.77
2023-05-18T12:47:32.248Z,2.30
2023-05-18T12:48:38.267Z,1.60
2023-05-18T12:49:42.344Z,1.80
2023-05-18T12:50:48.322Z,2.07
2023-05-18T12:51:54.599Z,1.90
2023-05-18T12:52:56.719Z,2.10
2023-05-18T12:53:58.800Z,2.17
2023-05-18T12:55:01.098Z,2.00
2023-05-18T12:56:09.615Z,1.70
2023-05-18T12:57:11.363Z,1.77
2023-05-18T12:58:17.833Z,2.00
2023-05-18T12:59:19.856Z,2.27
2023-05-18T13:00:22.787Z,1.63
2023-05-18T13:01:25.030Z,1.93
2023-05-18T13:02:33.982Z,2.17
2023-05-18T13:03:38.822Z,1.90
2023-05-18T13:04:40.562Z,2.00
2023-05-18T13:05:44.802Z,2.27
2023-05-18T13:06:46.784Z,2.37
2023-05-18T13:07:48.531Z,1.90
2023-05-18T13:08:54.667Z,2.00
2023-05-18T13:10:06.093Z,1.90
2023-05-18T13:11:14.238Z,2.10
2023-05-18T13:12:16.633Z,2.23
2023-05-18T13:13:18.307Z,2.10
2023-05-18T13:14:23.439Z,1.67
2023-05-18T13:15:25.218Z,1.57
2023-05-18T13:16:28.405Z,2.60
2023-05-18T13:17:30.087Z,2.23
2023-05-18T13:18:31.850Z,2.00
2023-05-18T13:19:36.131Z,1.93
2023-05-18T13:20:50.746Z,1.90
2023-05-18T13:21:56.772Z,1.90
2023-05-18T13:23:01.794Z,1.90
2023-05-18T13:24:04.825Z,1.93
2023-05-18T13:25:07.293Z,2.17
2023-05-18T13:26:08.912Z,1.80
2023-05-18T13:27:10.520Z,1.73
2023-05-18T13:28:14.309Z,1.60
2023-05-18T13:29:15.973Z,1.80
2023-05-18T13:30:18.227Z,1.77
2023-05-18T13:31:20.874Z,2.10
2023-05-18T13:32:22.631Z,1.80
2023-05-18T13:33:24.277Z,1.90
2023-05-18T13:34:25.926Z,2.27
2023-05-18T13:35:28.102Z,1.80
2023-05-18T13:36:30.052Z,2.50
2023-05-18T13:37:31.771Z,3.00
2023-05-18T13:38:35.517Z,1.53
2023-05-18T13:39:37.166Z,2.33
2023-05-18T13:40:39.745Z,1.77
2023-05-18T13:41:41.363Z,1.60
2023-05-18T13:42:43.940Z,2.57
2023-05-18T13:43:45.562Z,2.07
2023-05-18T13:44:48.042Z,2.00
2023-05-18T13:45:49.675Z,1.97
2023-05-18T13:46:51.413Z,1.90
2023-05-18T13:47:56.885Z,2.03
2023-05-18T13:48:58.550Z,1.90
2023-05-18T13:50:00.333Z,2.07
2023-05-18T13:51:02.079Z,2.30
2023-05-18T13:52:03.957Z,2.20
2023-05-18T13:53:06.470Z,2.53
2023-05-18T13:54:08.165Z,2.10
2023-05-18T13:55:11.295Z,2.03
2023-05-18T13:56:14.153Z,1.97
2023-05-18T13:57:16.051Z,2.10
2023-05-18T13:58:18.116Z,2.20
2023-05-18T13:59:21.904Z,2.00
2023-05-18T14:00:23.638Z,1.67
2023-05-18T14:01:25.442Z,1.87
2023-05-18T14:02:27.266Z,1.57
2023-05-18T14:03:29.135Z,1.80
2023-05-18T14:04:30.927Z,1.90
2023-05-18T14:05:34.675Z,2.00
2023-05-18T14:06:36.280Z,1.60
2023-05-18T14:07:39.493Z,1.90